Observation data for Pampa on 01/12/2018      Previous  Date  Next       Current Mesonet Observations  Soil Data  Daily Summary Page  Observations in Plain Language
KPMS 120600Z 05007KT M08/M10 A3023 RMK A01 T10811099  RH  088%=      5-min Rain = 0
KPMS 120605Z 03005KT M08/M09 A3024 RMK A01 T10781093  RH  090%=      5-min Rain = 0
KPMS 120610Z 03005KT M08/M10 A3024 RMK A01 T10771095  RH  088%=      5-min Rain = 0
KPMS 120615Z 03004KT M08/M10 A3024 RMK A01 T10811100  RH  087%=      5-min Rain = 0
KPMS 120620Z 03004KT M09/M11 A3024 RMK A01 T10851105  RH  087%=      5-min Rain = 0
KPMS 120625Z 35003KT M09/M10 A3025 RMK A01 T10871104  RH  089%=      5-min Rain = 0
KPMS 120630Z 35003KT M09/M10 A3025 RMK A01 T10851101  RH  090%=      5-min Rain = 0
KPMS 120635Z 35003KT M08/M10 A3025 RMK A01 T10841100  RH  090%=      5-min Rain = 0
KPMS 120640Z 34002KT M08/M10 A3025 RMK A01 T10831097  RH  090%=      5-min Rain = 0
KPMS 120645Z 00002KT M08/M10 A3025 RMK A01 T10831098  RH  090%=      5-min Rain = 0
KPMS 120650Z 32002KT M08/M10 A3024 RMK A01 T10841098  RH  091%=      5-min Rain = 0
KPMS 120655Z 33003KT M08/M10 A3024 RMK A01 T10821096  RH  091%=      5-min Rain = 0
KPMS 120700Z 34003KT M08/M10 A3024 RMK A01 T10831099  RH  090%=      5-min Rain = 0
KPMS 120705Z 35003KT M09/M10 A3024 RMK A01 T10851100  RH  090%=      5-min Rain = 0
KPMS 120710Z 33003KT M09/M10 A3024 RMK A01 T10871103  RH  090%=      5-min Rain = 0
KPMS 120715Z 35004KT M09/M11 A3024 RMK A01 T10891105  RH  090%=      5-min Rain = 0
KPMS 120720Z 00004KT M09/M11 A3024 RMK A01 T10911107  RH  090%=      5-min Rain = 0
KPMS 120725Z 01004KT M09/M11 A3024 RMK A01 T10931108  RH  090%=      5-min Rain = 0
KPMS 120730Z 01004KT M09/M11 A3023 RMK A01 T10931108  RH  091%=      5-min Rain = 0
KPMS 120735Z 02004KT M09/M11 A3023 RMK A01 T10941109  RH  090%=      5-min Rain = 0
KPMS 120740Z 02003KT M10/M11 A3023 RMK A01 T10961110  RH  091%=      5-min Rain = 0
KPMS 120745Z 02003KT M10/M11 A3023 RMK A01 T10961110  RH  091%=      5-min Rain = 0
KPMS 120750Z 02004KT M10/M11 A3022 RMK A01 T10961109  RH  091%=      5-min Rain = 0
KPMS 120755Z 36003KT M10/M11 A3023 RMK A01 T10961110  RH  091%=      5-min Rain = 0
KPMS 120800Z 00003KT M10/M11 A3023 RMK A01 T10961110  RH  091%=      5-min Rain = 0
KPMS 120805Z 00003KT M10/M11 A3023 RMK A01 T10971111  RH  091%=      5-min Rain = 0
KPMS 120810Z 02003KT M10/M11 A3023 RMK A01 T10971111  RH  091%=      5-min Rain = 0
KPMS 120815Z 03003KT M10/M11 A3022 RMK A01 T10971111  RH  091%=      5-min Rain = 0
KPMS 120820Z 05003KT M10/M11 A3022 RMK A01 T10981112  RH  091%=      5-min Rain = 0
KPMS 120825Z 06002KT M10/M11 A3021 RMK A01 T10971110  RH  091%=      5-min Rain = 0
KPMS 120830Z 08001KT M10/M11 A3021 RMK A01 T10961110  RH  091%=      5-min Rain = 0
KPMS 120835Z 07001KT M10/M11 A3021 RMK A01 T10961109  RH  091%=      5-min Rain = 0
KPMS 120840Z 06001KT M10/M11 A302 RMK A01 T10951110  RH  090%=      5-min Rain = 0
KPMS 120845Z 01001KT M10/M11 A3021 RMK A01 T10951109  RH  090%=      5-min Rain = 0
KPMS 120850Z 36001KT M10/M12 A3021 RMK A01 T10981115  RH  088%=      5-min Rain = 0
KPMS 120855Z 36001KT M10/M12 A3021 RMK A01 T11031120  RH  088%=      5-min Rain = 0
KPMS 120900Z 01002KT M10/M12 A3021 RMK A01 T11021117  RH  090%=      5-min Rain = 0
KPMS 120905Z 01002KT M10/M11 A302 RMK A01 T11001114  RH  091%=      5-min Rain = 0
KPMS 120910Z 34001KT M10/M11 A302 RMK A01 T10991113  RH  090%=      5-min Rain = 0
KPMS 120915Z 29001KT M10/M11 A302 RMK A01 T10961110  RH  090%=      5-min Rain = 0
KPMS 120920Z 32001KT M10/M11 A302 RMK A01 T10951112  RH  089%=      5-min Rain = 0
KPMS 120925Z 28001KT M10/M11 A302 RMK A01 T10961112  RH  089%=      5-min Rain = 0
KPMS 120930Z 24002KT M10/M11 A3021 RMK A01 T10951112  RH  088%=      5-min Rain = 0
KPMS 120935Z 23003KT M09/M11 A3021 RMK A01 T10941114  RH  087%=      5-min Rain = 0
KPMS 120940Z 24004KT M10/M12 A3021 RMK A01 T10951116  RH  086%=      5-min Rain = 0
KPMS 120945Z 24003KT M09/M12 A3021 RMK A01 T10941115  RH  086%=      5-min Rain = 0
KPMS 120950Z 24003KT M10/M12 A3021 RMK A01 T10951117  RH  085%=      5-min Rain = 0
KPMS 120955Z 23002KT M10/M12 A3021 RMK A01 T10961119  RH  085%=      5-min Rain = 0
KPMS 121000Z 31001KT M10/M12 A3021 RMK A01 T10971119  RH  085%=      5-min Rain = 0
KPMS 121005Z 32001KT M10/M12 A3021 RMK A01 T10991122  RH  085%=      5-min Rain = 0
KPMS 121010Z 32002KT M11/M13 A3021 RMK A01 T11061129  RH  084%=      5-min Rain = 0
KPMS 121015Z 32003KT M11/M13 A302 RMK A01 T11081129  RH  086%=      5-min Rain = 0
KPMS 121020Z 33003KT M11/M13 A3021 RMK A01 T11081126  RH  087%=      5-min Rain = 0
KPMS 121025Z 31003KT M11/M12 A3021 RMK A01 T11071124  RH  088%=      5-min Rain = 0
KPMS 121030Z 31002KT M10/M12 A302 RMK A01 T11031119  RH  089%=      5-min Rain = 0
KPMS 121035Z 30002KT M10/M12 A302 RMK A01 T10991116  RH  089%=      5-min Rain = 0
KPMS 121040Z 28002KT M10/M11 A302 RMK A01 T10961114  RH  088%=      5-min Rain = 0
KPMS 121045Z 28003KT M10/M12 A302 RMK A01 T10971116  RH  087%=      5-min Rain = 0
KPMS 121050Z 27003KT M10/M12 A302 RMK A01 T10951115  RH  087%=      5-min Rain = 0
KPMS 121055Z 26003KT M09/M12 A302 RMK A01 T10941115  RH  086%=      5-min Rain = 0
KPMS 121100Z 27003KT M10/M12 A302 RMK A01 T10951118  RH  084%=      5-min Rain = 0
KPMS 121105Z 26003KT M10/M12 A302 RMK A01 T10971120  RH  084%=      5-min Rain = 0
KPMS 121110Z 27003KT M10/M12 A302 RMK A01 T10981120  RH  085%=      5-min Rain = 0
KPMS 121115Z 26003KT M10/M12 A302 RMK A01 T10981119  RH  085%=      5-min Rain = 0
KPMS 121120Z 26003KT M10/M12 A302 RMK A01 T10961118  RH  085%=      5-min Rain = 0
KPMS 121125Z 26003KT M10/M12 A302 RMK A01 T10961118  RH  085%=      5-min Rain = 0
KPMS 121130Z 25003KT M09/M12 A302 RMK A01 T10941116  RH  085%=      5-min Rain = 0
KPMS 121135Z 24003KT M10/M12 A302 RMK A01 T10951118  RH  084%=      5-min Rain = 0
KPMS 121140Z 23003KT M10/M12 A3019 RMK A01 T10961119  RH  085%=      5-min Rain = 0
KPMS 121145Z 22002KT M10/M12 A3019 RMK A01 T10971121  RH  084%=      5-min Rain = 0
KPMS 121150Z 21003KT M10/M12 A3019 RMK A01 T10991121  RH  085%=      5-min Rain = 0
KPMS 121155Z 20003KT M10/M12 A302 RMK A01 T10981121  RH  085%=      5-min Rain = 0
KPMS 121200Z 20003KT M11/M13 A302 RMK A01 T11061131  RH  083%=      5-min Rain = 0
KPMS 121205Z 21003KT M12/M14 A302 RMK A01 T11151139  RH  084%=      5-min Rain = 0
KPMS 121210Z 21004KT M11/M13 A3019 RMK A01 T11141133  RH  087%=      5-min Rain = 0
KPMS 121215Z 22003KT M11/M13 A3019 RMK A01 T11101127  RH  088%=      5-min Rain = 0
KPMS 121220Z 22004KT M10/M12 A3019 RMK A01 T11041121  RH  089%=      5-min Rain = 0
KPMS 121225Z 22003KT M10/M12 A3019 RMK A01 T11001119  RH  087%=      5-min Rain = 0
KPMS 121230Z 22004KT M10/M12 A3019 RMK A01 T11001121  RH  086%=      5-min Rain = 0
KPMS 121235Z 22004KT M10/M12 A302 RMK A01 T11021124  RH  085%=      5-min Rain = 0
KPMS 121240Z 22004KT M10/M12 A302 RMK A01 T11001121  RH  086%=      5-min Rain = 0
KPMS 121245Z 22004KT M10/M12 A302 RMK A01 T10981119  RH  085%=      5-min Rain = 0
KPMS 121250Z 22004KT M10/M12 A302 RMK A01 T10971119  RH  085%=      5-min Rain = 0
KPMS 121255Z 21004KT M10/M12 A3021 RMK A01 T10971120  RH  084%=      5-min Rain = 0
KPMS 121300Z 21003KT M10/M12 A3021 RMK A01 T10981122  RH  084%=      5-min Rain = 0
KPMS 121305Z 23002KT M10/M12 A3021 RMK A01 T10991122  RH  084%=      5-min Rain = 0
KPMS 121310Z 21004KT M10/M12 A3021 RMK A01 T11001123  RH  085%=      5-min Rain = 0
KPMS 121315Z 20003KT M10/M12 A3021 RMK A01 T11001123  RH  084%=      5-min Rain = 0
KPMS 121320Z 17003KT M10/M13 A3021 RMK A01 T11021127  RH  084%=      5-min Rain = 0
KPMS 121325Z 18003KT M11/M13 A3021 RMK A01 T11101134  RH  084%=      5-min Rain = 0
KPMS 121330Z 17003KT M11/M13 A3021 RMK A01 T11121133  RH  086%=      5-min Rain = 0
KPMS 121335Z 17003KT M11/M13 A3021 RMK A01 T11121133  RH  086%=      5-min Rain = 0
KPMS 121340Z 17003KT M11/M13 A3022 RMK A01 T11131133  RH  087%=      5-min Rain = 0
KPMS 121345Z 17003KT M11/M13 A3022 RMK A01 T11121131  RH  087%=      5-min Rain = 0
KPMS 121350Z 17004KT M11/M13 A3022 RMK A01 T11121131  RH  088%=      5-min Rain = 0
KPMS 121355Z 16004KT M11/M13 A3022 RMK A01 T11091127  RH  088%=      5-min Rain = 0
KPMS 121400Z 16004KT M11/M13 A3022 RMK A01 T11101131  RH  086%=      5-min Rain = 0
KPMS 121405Z 15004KT M11/M13 A3022 RMK A01 T11111131  RH  086%=      5-min Rain = 0
KPMS 121410Z 13005KT M11/M14 A3022 RMK A01 T11141135  RH  086%=      5-min Rain = 0
KPMS 121415Z 14005KT M12/M14 A3022 RMK A01 T11151136  RH  086%=      5-min Rain = 0
KPMS 121420Z 14005KT M11/M13 A3022 RMK A01 T11141133  RH  087%=      5-min Rain = 0
KPMS 121425Z 14005KT M11/M13 A3022 RMK A01 T11091127  RH  087%=      5-min Rain = 0
KPMS 121430Z 14005KT M10/M12 A3021 RMK A01 T11021121  RH  088%=      5-min Rain = 0
KPMS 121435Z 13005KT M10/M12 A3021 RMK A01 T10961115  RH  087%=      5-min Rain = 0
KPMS 121440Z 13005KT M09/M11 A3022 RMK A01 T10881107  RH  087%=      5-min Rain = 0
KPMS 121445Z 14005KT M08/M10 A3022 RMK A01 T10811103  RH  085%=      5-min Rain = 0
KPMS 121450Z 15006KT M08/M10 A3022 RMK A01 T10761101  RH  083%=      5-min Rain = 0
KPMS 121455Z 15006KT M07/M10 A3022 RMK A01 T10721099  RH  082%=      5-min Rain = 0
KPMS 121500Z 15006KT M07/M10 A3022 RMK A01 T10681095  RH  082%=      5-min Rain = 0
KPMS 121505Z 16007KT M07/M09 A3022 RMK A01 T10651093  RH  081%=      5-min Rain = 0
KPMS 121510Z 16008KT M06/M09 A3021 RMK A01 T10631092  RH  081%=      5-min Rain = 0
KPMS 121515Z 16010KT M06/M09 A3021 RMK A01 T10611089  RH  081%=      5-min Rain = 0
KPMS 121520Z 16009KT M06/M09 A3021 RMK A01 T10581089  RH  080%=      5-min Rain = 0
KPMS 121525Z 16008KT M05/M09 A3021 RMK A01 T10541087  RH  078%=      5-min Rain = 0
KPMS 121530Z 17008KT M05/M09 A3021 RMK A01 T10501087  RH  077%=      5-min Rain = 0
KPMS 121535Z 16010KT M05/M09 A3021 RMK A01 T10481089  RH  074%=      5-min Rain = 0
KPMS 121540Z 17010KT M05/M09 A3021 RMK A01 T10461090  RH  073%=      5-min Rain = 0
KPMS 121545Z 16011KT M05/M09 A3021 RMK A01 T10461090  RH  072%=      5-min Rain = 0
KPMS 121550Z 16010KT M04/M09 A3021 RMK A01 T10431086  RH  073%=      5-min Rain = 0
KPMS 121555Z 17011KT M04/M09 A3021 RMK A01 T10401086  RH  071%=      5-min Rain = 0
KPMS 121600Z 17011KT M04/M09 A3021 RMK A01 T10391085  RH  071%=      5-min Rain = 0
KPMS 121605Z 16010KT M03/M08 A3021 RMK A01 T10331082  RH  070%=      5-min Rain = 0
KPMS 121610Z 17011KT M03/M08 A3021 RMK A01 T10281084  RH  066%=      5-min Rain = 0
KPMS 121615Z 17012G17KT M02/M09 A3021 RMK A01 T10201086  RH  061%=      5-min Rain = 0
KPMS 121620Z 17013KT M02/M09 A3021 RMK A01 T10171090  RH  058%=      5-min Rain = 0
KPMS 121625Z 17013KT M01/M09 A3021 RMK A01 T10141092  RH  056%=      5-min Rain = 0
KPMS 121630Z 16012G17KT M01/M09 A3021 RMK A01 T10091092  RH  054%=      5-min Rain = 0
KPMS 121635Z 16013G18KT M01/M09 A3021 RMK A01 T10061091  RH  053%=      5-min Rain = 0
KPMS 121640Z 17011G17KT M00/M09 A3022 RMK A01 T10041090  RH  053%=      5-min Rain = 0
KPMS 121645Z 17013G18KT M00/M09 A3021 RMK A01 T10011089  RH  052%=      5-min Rain = 0
KPMS 121650Z 17012G17KT 00/M09 A3021 RMK A01 T00021087  RH  052%=      5-min Rain = 0
KPMS 121655Z 17014KT 01/M09 A3021 RMK A01 T00051087  RH  051%=      5-min Rain = 0
KPMS 121700Z 17012KT 01/M09 A3021 RMK A01 T00081087  RH  050%=      5-min Rain = 0
KPMS 121705Z 17012G17KT 01/M09 A3021 RMK A01 T00101089  RH  048%=      5-min Rain = 0
KPMS 121710Z 17012KT 01/M09 A3021 RMK A01 T00141088  RH  047%=      5-min Rain = 0
KPMS 121715Z 17013KT 02/M09 A3021 RMK A01 T00161090  RH  046%=      5-min Rain = 0
KPMS 121720Z 18012G17KT 02/M09 A302 RMK A01 T00181091  RH  045%=      5-min Rain = 0
KPMS 121725Z 18013G19KT 02/M09 A302 RMK A01 T00211091  RH  044%=      5-min Rain = 0
KPMS 121730Z 17013G18KT 02/M09 A302 RMK A01 T00221092  RH  043%=      5-min Rain = 0
KPMS 121735Z 17013G18KT 03/M09 A3019 RMK A01 T00261093  RH  042%=      5-min Rain = 0
KPMS 121740Z 18012KT 03/M09 A3019 RMK A01 T00291092  RH  041%=      5-min Rain = 0
KPMS 121745Z 18013KT 03/M09 A3019 RMK A01 T00331093  RH  040%=      5-min Rain = 0
KPMS 121750Z 18013G22KT 03/M09 A3018 RMK A01 T00331090  RH  040%=      5-min Rain = 0
KPMS 121755Z 17015G21KT 03/M09 A3018 RMK A01 T00341093  RH  039%=      5-min Rain = 0
KPMS 121800Z 18014G19KT 03/M09 A3018 RMK A01 T00341092  RH  040%=      5-min Rain = 0
KPMS 121805Z 18016KT 03/M10 A3018 RMK A01 T00331096  RH  039%=      5-min Rain = 0
KPMS 121810Z 18015KT 03/M10 A3017 RMK A01 T00331095  RH  039%=      5-min Rain = 0
KPMS 121815Z 18015G20KT 03/M10 A3017 RMK A01 T00341096  RH  038%=      5-min Rain = 0
KPMS 121820Z 18016G21KT 04/M10 A3017 RMK A01 T00351099  RH  037%=      5-min Rain = 0
KPMS 121825Z 18014G19KT 04/M10 A3016 RMK A01 T00371099  RH  037%=      5-min Rain = 0
KPMS 121830Z 17015G20KT 04/M10 A3016 RMK A01 T00381097  RH  037%=      5-min Rain = 0
KPMS 121835Z 17014G21KT 04/M10 A3015 RMK A01 T00421097  RH  036%=      5-min Rain = 0
KPMS 121840Z 17016G21KT 04/M10 A3015 RMK A01 T00401101  RH  036%=      5-min Rain = 0
KPMS 121845Z 17015G20KT 04/M10 A3014 RMK A01 T00401100  RH  036%=      5-min Rain = 0
KPMS 121850Z 17014G20KT 04/M10 A3014 RMK A01 T00441101  RH  034%=      5-min Rain = 0
KPMS 121855Z 16016G22KT 04/M11 A3013 RMK A01 T00441105  RH  033%=      5-min Rain = 0
KPMS 121900Z 17015G21KT 05/M11 A3013 RMK A01 T00471106  RH  033%=      5-min Rain = 0
KPMS 121905Z 17016G21KT 05/M10 A3012 RMK A01 T00451103  RH  033%=      5-min Rain = 0
KPMS 121910Z 17015G21KT 05/M10 A3012 RMK A01 T00491104  RH  033%=      5-min Rain = 0
KPMS 121915Z 17016KT 05/M11 A3012 RMK A01 T00501105  RH  032%=      5-min Rain = 0
KPMS 121920Z 17015KT 05/M11 A3012 RMK A01 T00521106  RH  031%=      5-min Rain = 0
KPMS 121925Z 17016G21KT 05/M11 A3012 RMK A01 T00531107  RH  031%=      5-min Rain = 0
KPMS 121930Z 16016G22KT 05/M11 A3011 RMK A01 T00531108  RH  030%=      5-min Rain = 0
KPMS 121935Z 17018G23KT 05/M11 A3011 RMK A01 T00541110  RH  030%=      5-min Rain = 0
KPMS 121940Z 17016G21KT 06/M11 A3011 RMK A01 T00561110  RH  029%=      5-min Rain = 0
KPMS 121945Z 17016G21KT 06/M11 A3011 RMK A01 T00581112  RH  029%=      5-min Rain = 0
KPMS 121950Z 17016G23KT 06/M11 A301 RMK A01 T00601113  RH  028%=      5-min Rain = 0
KPMS 121955Z 17017G22KT 06/M11 A3011 RMK A01 T00601113  RH  028%=      5-min Rain = 0
KPMS 122000Z 18016G21KT 06/M11 A3011 RMK A01 T00591114  RH  028%=      5-min Rain = 0
KPMS 122005Z 18014G20KT 06/M12 A3011 RMK A01 T00601115  RH  028%=      5-min Rain = 0
KPMS 122010Z 18016G21KT 06/M12 A3011 RMK A01 T00611117  RH  027%=      5-min Rain = 0
KPMS 122015Z 18015G21KT 06/M12 A3011 RMK A01 T00611116  RH  027%=      5-min Rain = 0
KPMS 122020Z 17017G23KT 06/M12 A301 RMK A01 T00601117  RH  027%=      5-min Rain = 0
KPMS 122025Z 17017G23KT 06/M12 A301 RMK A01 T00631116  RH  027%=      5-min Rain = 0
KPMS 122030Z 18016G24KT 06/M12 A301 RMK A01 T00631116  RH  027%=      5-min Rain = 0
KPMS 122035Z 18015G22KT 06/M12 A301 RMK A01 T00631116  RH  027%=      5-min Rain = 0
KPMS 122040Z 18015KT 06/M12 A3011 RMK A01 T00641116  RH  027%=      5-min Rain = 0
KPMS 122045Z 17016G23KT 06/M12 A3011 RMK A01 T00621116  RH  027%=      5-min Rain = 0
KPMS 122050Z 17015G20KT 06/M11 A3011 RMK A01 T00621114  RH  027%=      5-min Rain = 0
KPMS 122055Z 18014KT 06/M11 A3011 RMK A01 T00631111  RH  028%=      5-min Rain = 0
KPMS 122100Z 18013G18KT 06/M11 A3011 RMK A01 T00631113  RH  028%=      5-min Rain = 0
KPMS 122105Z 18014KT 07/M11 A3012 RMK A01 T00651111  RH  028%=      5-min Rain = 0
KPMS 122110Z 17013G19KT 06/M11 A3012 RMK A01 T00621111  RH  028%=      5-min Rain = 0
KPMS 122115Z 18012KT 06/M11 A3012 RMK A01 T00641109  RH  028%=      5-min Rain = 0
KPMS 122120Z 17014KT 07/M11 A3012 RMK A01 T00661109  RH  028%=      5-min Rain = 0
KPMS 122125Z 16012KT 07/M11 A3013 RMK A01 T00651108  RH  028%=      5-min Rain = 0
KPMS 122130Z 16012G17KT 06/M11 A3013 RMK A01 T00641111  RH  028%=      5-min Rain = 0
KPMS 122135Z 16012KT 07/M11 A3013 RMK A01 T00651111  RH  028%=      5-min Rain = 0
KPMS 122140Z 15012KT 06/M11 A3013 RMK A01 T00641112  RH  027%=      5-min Rain = 0
KPMS 122145Z 15014G19KT 07/M11 A3013 RMK A01 T00651111  RH  028%=      5-min Rain = 0
KPMS 122150Z 15012G18KT 06/M11 A3013 RMK A01 T00641110  RH  028%=      5-min Rain = 0
KPMS 122155Z 16012G17KT 07/M11 A3014 RMK A01 T00651109  RH  028%=      5-min Rain = 0
KPMS 122200Z 16012KT 06/M11 A3014 RMK A01 T00641110  RH  028%=      5-min Rain = 0
KPMS 122205Z 16011KT 06/M11 A3014 RMK A01 T00631109  RH  028%=      5-min Rain = 0
KPMS 122210Z 14014KT 06/M11 A3014 RMK A01 T00621114  RH  028%=      5-min Rain = 0
KPMS 122215Z 15015KT 06/M12 A3014 RMK A01 T00581116  RH  028%=      5-min Rain = 0
KPMS 122220Z 15014KT 06/M12 A3014 RMK A01 T00571116  RH  028%=      5-min Rain = 0
KPMS 122225Z 14012KT 06/M12 A3015 RMK A01 T00561117  RH  028%=      5-min Rain = 0
KPMS 122230Z 15013KT 05/M12 A3016 RMK A01 T00541116  RH  028%=      5-min Rain = 0
KPMS 122235Z 14012G17KT 05/M12 A3016 RMK A01 T00531116  RH  029%=      5-min Rain = 0
KPMS 122240Z 15013KT 05/M12 A3016 RMK A01 T00521116  RH  029%=      5-min Rain = 0
KPMS 122245Z 15012KT 05/M12 A3017 RMK A01 T00511116  RH  029%=      5-min Rain = 0
KPMS 122250Z 14011KT 05/M12 A3017 RMK A01 T00501117  RH  029%=      5-min Rain = 0
KPMS 122255Z 14011KT 05/M12 A3017 RMK A01 T00491117  RH  029%=      5-min Rain = 0
KPMS 122300Z 14011KT 05/M12 A3017 RMK A01 T00461118  RH  030%=      5-min Rain = 0
KPMS 122305Z 14011KT 04/M12 A3018 RMK A01 T00441119  RH  030%=      5-min Rain = 0
KPMS 122310Z 13012KT 04/M12 A3018 RMK A01 T00411123  RH  030%=      5-min Rain = 0
KPMS 122315Z 14012KT 04/M12 A3018 RMK A01 T00381123  RH  030%=      5-min Rain = 0
KPMS 122320Z 14013KT 04/M12 A3018 RMK A01 T00351123  RH  031%=      5-min Rain = 0
KPMS 122325Z 14012KT 03/M12 A3018 RMK A01 T00321124  RH  031%=      5-min Rain = 0
KPMS 122330Z 13011KT 03/M12 A3019 RMK A01 T00291124  RH  032%=      5-min Rain = 0
KPMS 122335Z 13010G15KT 03/M12 A3019 RMK A01 T00271124  RH  032%=      5-min Rain = 0
KPMS 122340Z 13011KT 03/M13 A302 RMK A01 T00251125  RH  033%=      5-min Rain = 0
KPMS 122345Z 12010KT 02/M13 A302 RMK A01 T00231125  RH  033%=      5-min Rain = 0
KPMS 122350Z 13009KT 02/M13 A3021 RMK A01 T00211125  RH  033%=      5-min Rain = 0
KPMS 122355Z 13010KT 02/M13 A3021 RMK A01 T00191125  RH  034%=      5-min Rain = 0
KPMS 130000Z 12009KT 02/M12 A3022 RMK A01 T00181124  RH  034%=      5-min Rain = 0
KPMS 130005Z 12009KT 02/M12 A3022 RMK A01 T00161124  RH  035%=      5-min Rain = 0
KPMS 130010Z 12010KT 01/M12 A3022 RMK A01 T00131124  RH  036%=      5-min Rain = 0
KPMS 130015Z 12008KT 01/M12 A3023 RMK A01 T00111124  RH  036%=      5-min Rain = 0
KPMS 130020Z 12009KT 01/M12 A3023 RMK A01 T00081124  RH  037%=      5-min Rain = 0
KPMS 130025Z 12009KT 01/M13 A3023 RMK A01 T00061125  RH  037%=      5-min Rain = 0
KPMS 130030Z 12009KT 00/M13 A3024 RMK A01 T00031125  RH  038%=      5-min Rain = 0
KPMS 130035Z 12008KT 00/M13 A3025 RMK A01 T00011125  RH  039%=      5-min Rain = 0
KPMS 130040Z 11008KT M00/M13 A3025 RMK A01 T10011125  RH  039%=      5-min Rain = 0
KPMS 130045Z 12008KT M00/M13 A3025 RMK A01 T10031126  RH  040%=      5-min Rain = 0
KPMS 130050Z 12008KT M01/M13 A3025 RMK A01 T10061126  RH  040%=      5-min Rain = 0
KPMS 130055Z 13008KT M01/M13 A3025 RMK A01 T10101127  RH  041%=      5-min Rain = 0
KPMS 130100Z 13008KT M01/M13 A3025 RMK A01 T10121126  RH  042%=      5-min Rain = 0
KPMS 130105Z 14009KT M01/M13 A3025 RMK A01 T10121125  RH  042%=      5-min Rain = 0
KPMS 130110Z 13009KT M01/M13 A3025 RMK A01 T10111125  RH  042%=      5-min Rain = 0
KPMS 130115Z 13008KT M01/M13 A3025 RMK A01 T10101126  RH  041%=      5-min Rain = 0
KPMS 130120Z 13007KT M01/M13 A3027 RMK A01 T10101127  RH  041%=      5-min Rain = 0
KPMS 130125Z 12006KT M01/M13 A3028 RMK A01 T10121128  RH  042%=      5-min Rain = 0
KPMS 130130Z 12005KT M02/M13 A3029 RMK A01 T10161129  RH  043%=      5-min Rain = 0
KPMS 130135Z 14007KT M02/M13 A3029 RMK A01 T10211129  RH  044%=      5-min Rain = 0
KPMS 130140Z 14007KT M02/M13 A3029 RMK A01 T10231128  RH  045%=      5-min Rain = 0
KPMS 130145Z 14006KT M02/M13 A3029 RMK A01 T10241129  RH  045%=      5-min Rain = 0
KPMS 130150Z 15006KT M03/M13 A3029 RMK A01 T10281130  RH  046%=      5-min Rain = 0
KPMS 130155Z 15005KT M03/M13 A303 RMK A01 T10321131  RH  047%=      5-min Rain = 0
KPMS 130200Z 14005KT M04/M13 A303 RMK A01 T10351130  RH  048%=      5-min Rain = 0
KPMS 130205Z 14004KT M04/M13 A303 RMK A01 T10371132  RH  048%=      5-min Rain = 0
KPMS 130210Z 15004KT M04/M13 A303 RMK A01 T10411132  RH  050%=      5-min Rain = 0
KPMS 130215Z 15004KT M04/M13 A303 RMK A01 T10411131  RH  050%=      5-min Rain = 0
KPMS 130220Z 13003KT M04/M13 A3031 RMK A01 T10411132  RH  050%=      5-min Rain = 0
KPMS 130225Z 14004KT M04/M13 A3031 RMK A01 T10421133  RH  050%=      5-min Rain = 0
KPMS 130230Z 12003KT M04/M14 A3032 RMK A01 T10431135  RH  050%=      5-min Rain = 0
KPMS 130235Z 15008KT M04/M13 A3032 RMK A01 T10441134  RH  050%=      5-min Rain = 0
KPMS 130240Z 10005KT M04/M13 A3033 RMK A01 T10441131  RH  052%=      5-min Rain = 0
KPMS 130245Z 14008KT M04/M13 A3032 RMK A01 T10361128  RH  050%=      5-min Rain = 0
KPMS 130250Z 15002KT M03/M13 A3032 RMK A01 T10311128  RH  048%=      5-min Rain = 0
KPMS 130255Z 16005KT M03/M13 A3032 RMK A01 T10281128  RH  047%=      5-min Rain = 0
KPMS 130300Z 16007KT M02/M13 A3033 RMK A01 T10241127  RH  046%=      5-min Rain = 0
KPMS 130305Z 16007KT M02/M13 A3033 RMK A01 T10201127  RH  045%=      5-min Rain = 0
KPMS 130310Z 16009KT M02/M13 A3033 RMK A01 T10181127  RH  044%=      5-min Rain = 0
KPMS 130315Z 16008KT M02/M13 A3033 RMK A01 T10181127  RH  044%=      5-min Rain = 0
KPMS 130320Z 16007KT M02/M13 A3034 RMK A01 T10191126  RH  044%=      5-min Rain = 0
KPMS 130325Z 16006KT M02/M13 A3034 RMK A01 T10201126  RH  045%=      5-min Rain = 0
KPMS 130330Z 16006KT M02/M13 A3034 RMK A01 T10221126  RH  045%=      5-min Rain = 0
KPMS 130335Z 16007KT M02/M13 A3034 RMK A01 T10231125  RH  046%=      5-min Rain = 0
KPMS 130340Z 16006KT M02/M13 A3035 RMK A01 T10221125  RH  046%=      5-min Rain = 0
KPMS 130345Z 08005KT M02/M13 A3036 RMK A01 T10221125  RH  046%=      5-min Rain = 0
KPMS 130350Z 11005KT M02/M13 A3036 RMK A01 T10211127  RH  045%=      5-min Rain = 0
KPMS 130355Z 10004KT M02/M13 A3036 RMK A01 T10201127  RH  044%=      5-min Rain = 0
KPMS 130400Z 06003KT M02/M13 A3037 RMK A01 T10201127  RH  044%=      5-min Rain = 0
KPMS 130405Z 07004KT M02/M13 A3037 RMK A01 T10201128  RH  044%=      5-min Rain = 0
KPMS 130410Z 07004KT M02/M13 A3038 RMK A01 T10221130  RH  044%=      5-min Rain = 0
KPMS 130415Z 09005KT M03/M13 A3038 RMK A01 T10271132  RH  045%=      5-min Rain = 0
KPMS 130420Z 09005KT M03/M14 A3038 RMK A01 T10321135  RH  046%=      5-min Rain = 0
KPMS 130425Z 12007KT M04/M14 A3037 RMK A01 T10411136  RH  048%=      5-min Rain = 0
KPMS 130430Z 12006KT M05/M14 A3038 RMK A01 T10451136  RH  050%=      5-min Rain = 0
KPMS 130435Z 10005KT M05/M14 A3038 RMK A01 T10461136  RH  050%=      5-min Rain = 0
KPMS 130440Z 08004KT M05/M14 A3039 RMK A01 T10481137  RH  051%=      5-min Rain = 0
KPMS 130445Z 08004KT M05/M14 A304 RMK A01 T10491138  RH  051%=      5-min Rain = 0
KPMS 130450Z 07004KT M05/M14 A304 RMK A01 T10521139  RH  051%=      5-min Rain = 0
KPMS 130455Z 06005KT M06/M14 A304 RMK A01 T10561140  RH  052%=      5-min Rain = 0
KPMS 130500Z 08005KT M06/M14 A304 RMK A01 T10561140  RH  052%=      5-min Rain = 0
KPMS 130505Z 07006KT M06/M14 A3041 RMK A01 T10551139  RH  052%=      5-min Rain = 0
KPMS 130510Z 07005KT M06/M14 A3041 RMK A01 T10571140  RH  053%=      5-min Rain = 0
KPMS 130515Z 08005KT M06/M14 A3041 RMK A01 T10581141  RH  053%=      5-min Rain = 0
KPMS 130520Z 08005KT M06/M14 A3041 RMK A01 T10551140  RH  052%=      5-min Rain = 0
KPMS 130525Z 07005KT M05/M14 A3042 RMK A01 T10541141  RH  051%=      5-min Rain = 0
KPMS 130530Z 08005KT M06/M14 A3041 RMK A01 T10581142  RH  052%=      5-min Rain = 0
KPMS 130535Z 09005KT M06/M14 A3041 RMK A01 T10571141  RH  052%=      5-min Rain = 0
KPMS 130540Z 10005KT M06/M14 A3041 RMK A01 T10591143  RH  053%=      5-min Rain = 0
KPMS 130545Z 11005KT M07/M15 A3041 RMK A01 T10651145  RH  054%=      5-min Rain = 0
KPMS 130550Z 12005KT M07/M14 A3041 RMK A01 T10661143  RH  055%=      5-min Rain = 0
KPMS 130555Z 11003KT M06/M14 A3041 RMK A01 T10641142  RH  055%=      5-min Rain = 0

Page generated in 0.0095 seconds.